createdAt,value
2023-03-07T00:01:30.989Z,97044.03
2023-03-07T00:03:59.142Z,97041.44
2023-03-07T00:06:26.203Z,97031.00
2023-03-07T00:08:54.911Z,97022.31
2023-03-07T00:11:21.911Z,97005.81
2023-03-07T00:13:48.912Z,97013.63
2023-03-07T00:16:18.198Z,97000.59
2023-03-07T00:18:45.061Z,96991.91
2023-03-07T00:21:15.909Z,97000.59
2023-03-07T00:23:44.022Z,96990.16
2023-03-07T00:26:19.477Z,96990.16
2023-03-07T00:28:47.929Z,96971.03
2023-03-07T00:31:14.879Z,96964.94
2023-03-07T00:33:41.781Z,96950.16
2023-03-07T00:36:12.608Z,96948.44
2023-03-07T00:38:42.589Z,96933.66
2023-03-07T00:41:19.481Z,96944.09
2023-03-07T00:43:47.141Z,96930.16
2023-03-07T00:46:17.624Z,96916.25
2023-03-07T00:48:47.317Z,96910.16
2023-03-07T00:51:20.011Z,96918.88
2023-03-07T00:53:46.844Z,96917.13
2023-03-07T00:56:19.621Z,96878.88
2023-03-07T00:58:46.668Z,96898.84
2023-03-07T01:01:15.996Z,96893.63
2023-03-07T01:03:43.123Z,96873.63
2023-03-07T01:06:14.613Z,96873.63
2023-03-07T01:08:43.610Z,96891.88
2023-03-07T01:11:10.688Z,96876.22
2023-03-07T01:13:37.954Z,96862.31
2023-03-07T01:16:25.315Z,96861.44
2023-03-07T01:18:55.307Z,96840.59
2023-03-07T01:21:27.873Z,96856.22
2023-03-07T01:23:54.878Z,96816.22
2023-03-07T01:26:29.869Z,96841.44
2023-03-07T01:28:58.776Z,96837.97
2023-03-07T01:31:26.213Z,96824.94
2023-03-07T01:33:53.755Z,96822.34
2023-03-07T01:36:28.390Z,96826.69
2023-03-07T01:38:59.966Z,96835.38
2023-03-07T01:41:29.713Z,96835.38
2023-03-07T01:44:00.189Z,96834.50
2023-03-07T01:46:53.545Z,96823.22
2023-03-07T01:49:26.158Z,96812.78
2023-03-07T01:52:14.454Z,96810.16
2023-03-07T01:54:48.922Z,96797.13
2023-03-07T01:57:24.893Z,96778.88
2023-03-07T01:59:56.006Z,96776.28
2023-03-07T02:02:23.431Z,96774.53
2023-03-07T02:04:59.333Z,96751.94
2023-03-07T02:07:30.679Z,96765.81
2023-03-07T02:09:58.313Z,96773.66
2023-03-07T02:12:24.763Z,96752.78
2023-03-07T02:14:52.409Z,96764.09
2023-03-07T02:17:19.907Z,96758.88
2023-03-07T02:20:25.679Z,96749.31
2023-03-07T02:22:54.611Z,96751.06
2023-03-07T02:25:33.583Z,96748.44
2023-03-07T02:28:04.412Z,96748.47
2023-03-07T02:30:30.949Z,96716.31
2023-03-07T02:32:57.950Z,96741.50
2023-03-07T02:35:26.123Z,96742.38
2023-03-07T02:37:57.343Z,96738.03
2023-03-07T02:40:26.802Z,96731.97
2023-03-07T02:42:57.388Z,96708.47
2023-03-07T02:45:23.973Z,96728.47
2023-03-07T02:47:50.463Z,96719.78
2023-03-07T02:50:17.821Z,96720.66
2023-03-07T02:52:44.768Z,96720.66
2023-03-07T02:55:11.328Z,96702.41
2023-03-07T02:57:37.770Z,96711.06
2023-03-07T03:00:10.213Z,96718.91
2023-03-07T03:02:36.702Z,96705.00
2023-03-07T03:05:04.459Z,96697.16
2023-03-07T03:07:31.044Z,96699.78
2023-03-07T03:09:57.905Z,96697.19
2023-03-07T03:12:24.356Z,96707.63
2023-03-07T03:14:50.883Z,96685.03
2023-03-07T03:17:17.617Z,96696.34
2023-03-07T03:19:44.210Z,96682.44
2023-03-07T03:22:11.029Z,96689.38
2023-03-07T03:24:42.303Z,96694.56
2023-03-07T03:27:09.344Z,96675.44
2023-03-07T03:29:36.072Z,96694.56
2023-03-07T03:32:02.709Z,96696.28
2023-03-07T03:34:29.776Z,96680.66
2023-03-07T03:36:56.290Z,96686.75
2023-03-07T03:39:22.874Z,96689.34
2023-03-07T03:41:49.363Z,96671.97
2023-03-07T03:44:15.808Z,96691.09
2023-03-07T03:46:42.320Z,96694.56
2023-03-07T03:49:12.467Z,96693.69
2023-03-07T03:51:38.982Z,96703.25
2023-03-07T03:54:05.509Z,96704.13
2023-03-07T03:56:33.933Z,96688.50
2023-03-07T03:59:00.407Z,96701.53
2023-03-07T04:01:31.467Z,96689.38
2023-03-07T04:03:58.393Z,96691.09
2023-03-07T04:06:30.802Z,96689.38
2023-03-07T04:08:57.528Z,96671.97
2023-03-07T04:11:25.288Z,96676.31
2023-03-07T04:13:52.419Z,96677.16
2023-03-07T04:16:20.197Z,96680.63
2023-03-07T04:18:46.764Z,96685.84
2023-03-07T04:21:13.276Z,96682.38
2023-03-07T04:23:39.862Z,96679.75
2023-03-07T04:26:08.184Z,96674.53
2023-03-07T04:28:46.620Z,96669.31
2023-03-07T04:31:21.978Z,96662.38
2023-03-07T04:33:49.602Z,96671.91
2023-03-07T04:36:16.634Z,96667.56
2023-03-07T04:38:43.754Z,96675.44
2023-03-07T04:41:18.854Z,96661.47
2023-03-07T04:43:45.629Z,96669.31
2023-03-07T04:46:14.898Z,96673.69
2023-03-07T04:48:41.484Z,96665.84
2023-03-07T04:51:07.988Z,96673.66
2023-03-07T04:53:34.677Z,96671.06
2023-03-07T04:56:02.779Z,96649.34
2023-03-07T04:58:30.445Z,96671.91
2023-03-07T05:00:57.781Z,96671.03
2023-03-07T05:03:27.228Z,96668.44
2023-03-07T05:05:54.213Z,96663.19
2023-03-07T05:08:21.946Z,96664.94
2023-03-07T05:10:48.522Z,96663.19
2023-03-07T05:13:15.046Z,96670.16
2023-03-07T05:15:41.507Z,96659.72
2023-03-07T05:18:08.035Z,96657.97
2023-03-07T05:20:34.763Z,96644.91
2023-03-07T05:23:01.254Z,96640.59
2023-03-07T05:25:28.540Z,96632.75
2023-03-07T05:27:55.117Z,96624.03
2023-03-07T05:30:22.251Z,96614.47
2023-03-07T05:32:48.845Z,96621.44
2023-03-07T05:35:16.082Z,96617.09
2023-03-07T05:37:42.646Z,96614.47
2023-03-07T05:40:10.548Z,96617.97
2023-03-07T05:42:37.536Z,96620.56
2023-03-07T05:45:05.899Z,96611.91
2023-03-07T05:47:32.613Z,96623.19
2023-03-07T05:49:59.122Z,96617.09
2023-03-07T05:52:29.124Z,96613.59
2023-03-07T05:54:55.671Z,96615.31
2023-03-07T05:57:25.520Z,96604.00
2023-03-07T05:59:52.275Z,96606.56
2023-03-07T06:02:19.795Z,96604.84
2023-03-07T06:04:46.962Z,96612.69
2023-03-07T06:07:13.463Z,96604.84
2023-03-07T06:09:39.941Z,96612.66
2023-03-07T06:12:06.700Z,96603.94
2023-03-07T06:14:33.189Z,96598.72
2023-03-07T06:16:59.688Z,96617.00
2023-03-07T06:19:26.263Z,96615.25
2023-03-07T06:21:52.739Z,96589.13
2023-03-07T06:24:19.286Z,96605.66
2023-03-07T06:26:45.811Z,96611.69
2023-03-07T06:29:12.366Z,96613.47
2023-03-07T06:31:41.949Z,96615.19
2023-03-07T06:34:08.726Z,96615.22
2023-03-07T06:36:35.358Z,96623.03
2023-03-07T06:39:01.914Z,96618.66
2023-03-07T06:41:28.434Z,96631.72
2023-03-07T06:43:54.937Z,96621.25
2023-03-07T06:46:21.690Z,96627.34
2023-03-07T06:48:48.274Z,96637.81
2023-03-07T06:51:14.755Z,96631.72
2023-03-07T06:53:41.274Z,96643.00
2023-03-07T06:56:07.755Z,96633.47
2023-03-07T06:58:34.283Z,96645.63
2023-03-07T07:01:00.972Z,96648.22
2023-03-07T07:03:27.497Z,96649.13
2023-03-07T07:05:53.992Z,96640.41
2023-03-07T07:08:20.511Z,96650.88
2023-03-07T07:10:47.018Z,96629.06
2023-03-07T07:13:13.648Z,96635.16
2023-03-07T07:15:40.132Z,96633.38
2023-03-07T07:18:06.611Z,96643.84
2023-03-07T07:20:33.313Z,96623.78
2023-03-07T07:22:59.856Z,96624.63
2023-03-07T07:25:26.396Z,96635.06
2023-03-07T07:27:52.832Z,96644.63
2023-03-07T07:30:19.303Z,96632.44
2023-03-07T07:32:48.801Z,96637.63
2023-03-07T07:35:15.423Z,96642.84
2023-03-07T07:37:41.988Z,96641.94
2023-03-07T07:40:10.552Z,96640.19
2023-03-07T07:42:37.508Z,96643.69
2023-03-07T07:45:05.069Z,96637.56
2023-03-07T07:47:31.561Z,96637.56
2023-03-07T07:49:58.103Z,96630.59
2023-03-07T07:52:24.598Z,96633.19
2023-03-07T07:54:51.729Z,96636.69
2023-03-07T07:57:18.210Z,96637.56
2023-03-07T07:59:44.735Z,96638.47
2023-03-07T08:02:13.755Z,96643.69
2023-03-07T08:04:40.620Z,96634.97
2023-03-07T08:07:07.887Z,96648.88
2023-03-07T08:09:35.568Z,96639.31
2023-03-07T08:12:02.387Z,96638.44
2023-03-07T08:14:29.025Z,96633.19
2023-03-07T08:16:55.505Z,96640.09
2023-03-07T08:19:22.021Z,96628.78
2023-03-07T08:21:48.464Z,96630.47
2023-03-07T08:24:14.923Z,96636.53
2023-03-07T08:26:41.486Z,96622.59
2023-03-07T08:29:07.948Z,96632.16
2023-03-07T08:31:37.502Z,96638.22
2023-03-07T08:34:04.021Z,96637.31
2023-03-07T08:36:30.828Z,96632.91
2023-03-07T08:38:57.259Z,96631.16
2023-03-07T08:41:23.917Z,96630.25
2023-03-07T08:43:51.058Z,96632.00
2023-03-07T08:46:17.615Z,96635.47
2023-03-07T08:48:45.548Z,96634.59
2023-03-07T08:51:15.721Z,96638.94
2023-03-07T08:53:46.157Z,96627.56
2023-03-07T08:56:15.622Z,96633.72
2023-03-07T08:58:42.672Z,96636.31
2023-03-07T09:01:10.233Z,96635.44
2023-03-07T09:03:36.984Z,96639.81
2023-03-07T09:06:04.620Z,96632.84
2023-03-07T09:08:31.213Z,96642.44
2023-03-07T09:11:03.543Z,96641.56
2023-03-07T09:13:30.058Z,96642.47
2023-03-07T09:15:56.570Z,96641.63
2023-03-07T09:18:23.097Z,96635.53
2023-03-07T09:20:49.600Z,96639.03
2023-03-07T09:23:16.193Z,96643.41
2023-03-07T09:25:44.495Z,96639.88
2023-03-07T09:28:11.175Z,96638.13
2023-03-07T09:30:38.090Z,96634.66
2023-03-07T09:33:04.564Z,96636.50
2023-03-07T09:35:31.060Z,96633.19
2023-03-07T09:37:57.944Z,96639.41
2023-03-07T09:40:27.055Z,96641.28
2023-03-07T09:43:04.292Z,96643.97
2023-03-07T09:46:04.906Z,96640.50
2023-03-07T09:48:34.508Z,96631.84
2023-03-07T09:51:21.630Z,96638.81
2023-03-07T09:53:53.836Z,96638.81
2023-03-07T09:56:44.523Z,96633.63
2023-03-07T09:59:23.650Z,96645.00
2023-03-07T10:02:11.802Z,96644.13
2023-03-07T10:05:13.393Z,96650.25
2023-03-07T10:07:39.911Z,96645.03
2023-03-07T10:10:14.189Z,96642.41
2023-03-07T10:13:07.663Z,96645.03
2023-03-07T10:15:39.725Z,96642.44
2023-03-07T10:18:22.447Z,96641.59
2023-03-07T10:20:57.407Z,96652.00
2023-03-07T10:24:02.060Z,96651.16
2023-03-07T10:26:57.222Z,96659.88
2023-03-07T10:29:27.318Z,96655.50
2023-03-07T10:32:07.169Z,96663.34
2023-03-07T10:34:33.745Z,96656.41
2023-03-07T10:37:13.995Z,96663.34
2023-03-07T10:39:46.779Z,96664.22
2023-03-07T10:42:16.218Z,96665.09
2023-03-07T10:44:45.205Z,96668.56
2023-03-07T10:47:28.900Z,96666.81
2023-03-07T10:50:03.628Z,96681.59
2023-03-07T10:52:40.086Z,96670.28
2023-03-07T10:55:34.655Z,96676.38
2023-03-07T10:58:26.939Z,96679.00
2023-03-07T11:01:01.321Z,96687.69
2023-03-07T11:03:35.294Z,96682.50
2023-03-07T11:06:31.092Z,96693.78
2023-03-07T11:09:07.349Z,96689.41
2023-03-07T11:11:33.879Z,96689.41
2023-03-07T11:14:14.492Z,96679.84
2023-03-07T11:16:53.830Z,96690.28
2023-03-07T11:19:42.657Z,96685.06
2023-03-07T11:22:27.209Z,96684.19
2023-03-07T11:25:01.208Z,96690.28
2023-03-07T11:27:38.885Z,96696.38
2023-03-07T11:30:45.345Z,96693.75
2023-03-07T11:33:21.617Z,96693.75
2023-03-07T11:35:57.270Z,96691.16
2023-03-07T11:38:34.486Z,96700.69
2023-03-07T11:41:28.230Z,96698.09
2023-03-07T11:44:16.184Z,96696.34
2023-03-07T11:47:01.304Z,96694.63
2023-03-07T11:50:06.451Z,96698.94
2023-03-07T11:52:59.796Z,96701.56
2023-03-07T11:55:29.365Z,96697.22
2023-03-07T11:58:10.248Z,96692.88
2023-03-07T12:01:00.731Z,96698.09
2023-03-07T12:03:36.254Z,96687.69
2023-03-07T12:06:33.253Z,96685.09
2023-03-07T12:09:18.526Z,96692.91
2023-03-07T12:12:00.172Z,96697.25
2023-03-07T12:14:32.688Z,96692.91
2023-03-07T12:17:21.800Z,96692.91
2023-03-07T12:20:07.885Z,96698.13
2023-03-07T12:23:19.201Z,96703.31
2023-03-07T12:25:50.353Z,96694.63
2023-03-07T12:28:30.110Z,96701.59
2023-03-07T12:31:34.705Z,96703.31
2023-03-07T12:34:14.131Z,96697.19
2023-03-07T12:36:40.644Z,96705.88
2023-03-07T12:39:29.904Z,96705.03
2023-03-07T12:42:32.190Z,96710.25
2023-03-07T12:45:19.906Z,96707.66
2023-03-07T12:48:05.917Z,96717.22
2023-03-07T12:50:35.392Z,96714.59
2023-03-07T12:53:22.685Z,96709.38
2023-03-07T12:56:00.543Z,96711.09
2023-03-07T12:58:42.075Z,96712.00
2023-03-07T13:01:21.397Z,96717.19
2023-03-07T13:03:53.926Z,96716.31
2023-03-07T13:06:22.895Z,96721.53
2023-03-07T13:08:53.179Z,96719.78
2023-03-07T13:11:22.670Z,96718.88
2023-03-07T13:13:53.767Z,96723.22
2023-03-07T13:16:58.911Z,96724.97
2023-03-07T13:19:31.011Z,96727.59
2023-03-07T13:21:58.339Z,96733.69
2023-03-07T13:24:41.690Z,96735.44
2023-03-07T13:27:42.002Z,96726.72
2023-03-07T13:30:08.464Z,96730.19
2023-03-07T13:32:54.328Z,96734.56
2023-03-07T13:35:32.810Z,96739.78
2023-03-07T13:38:13.261Z,96738.91
2023-03-07T13:40:46.556Z,96738.91
2023-03-07T13:43:18.876Z,96737.19
2023-03-07T13:46:05.823Z,96732.81
2023-03-07T13:48:32.317Z,96737.19
2023-03-07T13:50:58.775Z,96732.84
2023-03-07T13:53:35.193Z,96735.47
2023-03-07T13:56:16.957Z,96731.97
2023-03-07T13:58:49.687Z,96741.53
2023-03-07T14:01:23.561Z,96736.31
2023-03-07T14:04:24.161Z,96741.53
2023-03-07T14:07:03.466Z,96733.72
2023-03-07T14:09:39.912Z,96736.31
2023-03-07T14:12:09.607Z,96740.66
2023-03-07T14:15:13.600Z,96735.44
2023-03-07T14:17:59.559Z,96738.06
2023-03-07T14:20:54.477Z,96738.94
2023-03-07T14:23:47.516Z,96729.34
2023-03-07T14:26:24.607Z,96730.22
2023-03-07T14:29:00.016Z,96726.75
2023-03-07T14:31:30.877Z,96719.78
2023-03-07T14:33:58.709Z,96712.00
2023-03-07T14:36:30.878Z,96703.28
2023-03-07T14:39:02.249Z,96711.13
2023-03-07T14:42:07.226Z,96718.06
2023-03-07T14:44:56.966Z,96720.66
2023-03-07T14:47:42.182Z,96712.84
2023-03-07T14:50:15.906Z,96722.38
2023-03-07T14:52:46.200Z,96725.88
2023-03-07T14:55:18.009Z,96724.97
2023-03-07T14:57:49.781Z,96725.84
2023-03-07T15:00:29.386Z,96733.69
2023-03-07T15:03:04.459Z,96727.59
2023-03-07T15:05:33.997Z,96734.53
2023-03-07T15:08:00.493Z,96729.34
2023-03-07T15:10:29.565Z,96720.63
2023-03-07T15:12:57.476Z,96721.50
2023-03-07T15:15:30.153Z,96727.59
2023-03-07T15:18:03.989Z,96725.03
2023-03-07T15:20:31.536Z,96724.13
2023-03-07T15:23:08.260Z,96726.72
2023-03-07T15:25:38.696Z,96725.00
2023-03-07T15:28:21.222Z,96727.59
2023-03-07T15:30:53.312Z,96733.69
2023-03-07T15:33:20.202Z,96728.47
2023-03-07T15:36:12.615Z,96727.59
2023-03-07T15:38:53.173Z,96738.03
2023-03-07T15:41:33.728Z,96737.16
2023-03-07T15:44:17.511Z,96748.47
2023-03-07T15:47:13.909Z,96745.88
2023-03-07T15:49:50.858Z,96751.09
2023-03-07T15:52:31.771Z,96751.06
2023-03-07T15:55:01.038Z,96756.28
2023-03-07T15:57:38.573Z,96755.44
2023-03-07T16:00:06.714Z,96751.09
2023-03-07T16:02:33.362Z,96764.13
2023-03-07T16:05:27.848Z,96759.75
2023-03-07T16:07:56.866Z,96771.94
2023-03-07T16:10:29.520Z,96775.44
2023-03-07T16:12:56.234Z,96776.28
2023-03-07T16:15:23.930Z,96778.03
2023-03-07T16:17:54.955Z,96778.88
2023-03-07T16:20:27.908Z,96784.09
2023-03-07T16:22:54.938Z,96788.44
2023-03-07T16:25:24.258Z,96792.81
2023-03-07T16:27:53.312Z,96774.53
2023-03-07T16:30:24.340Z,96780.63
2023-03-07T16:32:50.902Z,96780.63
2023-03-07T16:35:24.360Z,96784.09
2023-03-07T16:37:51.799Z,96784.09
2023-03-07T16:40:19.107Z,96790.16
2023-03-07T16:42:47.632Z,96781.50
2023-03-07T16:45:27.471Z,96784.97
2023-03-07T16:47:59.773Z,96794.50
2023-03-07T16:50:31.608Z,96801.47
2023-03-07T16:52:58.252Z,96809.28
2023-03-07T16:55:25.968Z,96814.50
2023-03-07T16:58:01.922Z,96817.97
2023-03-07T17:00:28.951Z,96815.31
2023-03-07T17:03:00.157Z,96823.09
2023-03-07T17:05:28.562Z,96831.72
2023-03-07T17:07:56.954Z,96829.13
2023-03-07T17:10:26.356Z,96831.72
2023-03-07T17:12:54.991Z,96822.13
2023-03-07T17:15:26.260Z,96829.13
2023-03-07T17:17:53.181Z,96833.38
2023-03-07T17:20:20.496Z,96835.09
2023-03-07T17:22:47.049Z,96833.38
2023-03-07T17:25:13.828Z,96830.75
2023-03-07T17:27:45.364Z,96835.91
2023-03-07T17:30:22.714Z,96841.16
2023-03-07T17:32:49.316Z,96844.63
2023-03-07T17:35:16.070Z,96849.84
2023-03-07T17:37:45.310Z,96850.66
2023-03-07T17:40:13.454Z,96857.66
2023-03-07T17:42:41.728Z,96852.44
2023-03-07T17:45:11.264Z,96853.31
2023-03-07T17:47:38.407Z,96855.91
2023-03-07T17:50:06.185Z,96852.41
2023-03-07T17:52:33.763Z,96858.47
2023-03-07T17:55:00.754Z,96872.34
2023-03-07T17:57:28.366Z,96865.38
2023-03-07T17:59:58.140Z,96865.38
2023-03-07T18:02:25.898Z,96860.13
2023-03-07T18:04:52.580Z,96868.81
2023-03-07T18:07:19.755Z,96880.97
2023-03-07T18:09:48.509Z,96883.56
2023-03-07T18:12:18.923Z,96873.19
2023-03-07T18:14:45.414Z,96877.53
2023-03-07T18:17:11.922Z,96874.09
2023-03-07T18:19:39.204Z,96887.09
2023-03-07T18:22:06.224Z,96881.91
2023-03-07T18:24:33.900Z,96881.91
2023-03-07T18:27:00.821Z,96881.03
2023-03-07T18:29:28.911Z,96878.41
2023-03-07T18:31:55.669Z,96882.75
2023-03-07T18:34:22.319Z,96876.66
2023-03-07T18:36:51.644Z,96887.09
2023-03-07T18:39:22.652Z,96889.69
2023-03-07T18:41:50.097Z,96892.28
2023-03-07T18:44:18.526Z,96899.22
2023-03-07T18:46:45.337Z,96886.22
2023-03-07T18:49:11.917Z,96888.81
2023-03-07T18:51:39.375Z,96898.34
2023-03-07T18:54:06.000Z,96900.97
2023-03-07T18:56:33.384Z,96898.34
2023-03-07T18:59:00.138Z,96898.38
2023-03-07T19:01:31.944Z,96907.91
2023-03-07T19:04:00.699Z,96907.09
2023-03-07T19:06:35.869Z,96903.63
2023-03-07T19:09:03.813Z,96908.84
2023-03-07T19:11:30.963Z,96910.50
2023-03-07T19:13:57.700Z,96906.19
2023-03-07T19:16:26.829Z,96907.03
2023-03-07T19:18:54.344Z,96911.38
2023-03-07T19:21:24.111Z,96921.78
2023-03-07T19:23:52.449Z,96920.03
2023-03-07T19:26:20.146Z,96926.97
2023-03-07T19:28:48.737Z,96929.59
2023-03-07T19:31:18.362Z,96930.44
2023-03-07T19:33:45.827Z,96934.78
2023-03-07T19:36:15.427Z,96938.25
2023-03-07T19:38:42.713Z,96943.47
2023-03-07T19:41:14.020Z,96952.13
2023-03-07T19:43:41.049Z,96955.59
2023-03-07T19:46:09.849Z,96954.69
2023-03-07T19:48:38.383Z,96965.94
2023-03-07T19:51:13.371Z,96971.16
2023-03-07T19:53:40.008Z,96968.53
2023-03-07T19:56:16.210Z,96976.31
2023-03-07T19:58:42.756Z,96975.44
2023-03-07T20:01:14.665Z,96982.38
2023-03-07T20:03:41.115Z,96981.53
2023-03-07T20:06:15.406Z,96982.34
2023-03-07T20:08:41.923Z,96980.59
2023-03-07T20:11:13.135Z,96984.06
2023-03-07T20:13:41.293Z,96985.84
2023-03-07T20:16:10.417Z,96986.66
2023-03-07T20:18:38.080Z,96989.25
2023-03-07T20:21:14.927Z,96991.06
2023-03-07T20:23:44.572Z,96984.09
2023-03-07T20:26:15.356Z,96989.31
2023-03-07T20:28:42.096Z,96991.94
2023-03-07T20:31:09.936Z,96998.00
2023-03-07T20:33:41.697Z,96999.72
2023-03-07T20:36:13.704Z,97007.53
2023-03-07T20:38:40.189Z,97000.59
2023-03-07T20:41:10.306Z,97006.69
2023-03-07T20:43:36.812Z,97010.16
2023-03-07T20:46:05.328Z,97019.69
2023-03-07T20:48:31.975Z,97022.28
2023-03-07T20:51:05.264Z,97014.50
2023-03-07T20:53:32.296Z,97023.19
2023-03-07T20:56:04.290Z,97018.00
2023-03-07T20:58:32.122Z,97017.97
2023-03-07T21:00:59.379Z,97027.53
2023-03-07T21:03:26.717Z,97016.25
2023-03-07T21:05:58.729Z,97007.59
2023-03-07T21:08:26.105Z,97011.91
2023-03-07T21:11:12.890Z,97019.69
2023-03-07T21:13:42.024Z,97023.16
2023-03-07T21:16:15.042Z,97024.03
2023-03-07T21:18:41.881Z,97028.34
2023-03-07T21:21:11.563Z,97030.09
2023-03-07T21:23:38.324Z,97034.41
2023-03-07T21:26:12.656Z,97037.88
2023-03-07T21:28:39.585Z,97032.69
2023-03-07T21:31:17.230Z,97021.34
2023-03-07T21:33:45.827Z,97032.69
2023-03-07T21:36:14.482Z,97037.88
2023-03-07T21:38:44.966Z,97041.28
2023-03-07T21:41:12.396Z,97040.41
2023-03-07T21:43:39.097Z,97044.75
2023-03-07T21:46:07.716Z,97046.50
2023-03-07T21:48:34.622Z,97048.22
2023-03-07T21:51:01.453Z,97046.50
2023-03-07T21:53:27.978Z,97049.94
2023-03-07T21:55:58.307Z,97046.47
2023-03-07T21:58:25.132Z,97054.28
2023-03-07T22:00:53.708Z,97051.69
2023-03-07T22:03:20.735Z,97053.44
2023-03-07T22:05:48.413Z,97059.56
2023-03-07T22:08:16.051Z,97061.25
2023-03-07T22:10:43.371Z,97060.34
2023-03-07T22:13:10.184Z,97057.72
2023-03-07T22:15:40.324Z,97059.47
2023-03-07T22:18:09.408Z,97060.31
2023-03-07T22:20:37.991Z,97062.88
2023-03-07T22:23:04.496Z,97067.25
2023-03-07T22:25:31.133Z,97067.28
2023-03-07T22:27:57.614Z,97065.56
2023-03-07T22:30:24.062Z,97069.91
2023-03-07T22:32:50.593Z,97064.72
2023-03-07T22:35:17.117Z,97056.03
2023-03-07T22:37:46.615Z,97058.63
2023-03-07T22:40:13.501Z,97062.03
2023-03-07T22:42:40.069Z,97061.19
2023-03-07T22:45:07.416Z,97060.31
2023-03-07T22:47:34.066Z,97066.31
2023-03-07T22:50:00.603Z,97070.59
2023-03-07T22:52:27.044Z,97072.31
2023-03-07T22:54:54.548Z,97075.81
2023-03-07T22:57:24.373Z,97074.94
2023-03-07T22:59:50.938Z,97067.06
2023-03-07T23:02:20.085Z,97078.34
2023-03-07T23:04:46.657Z,97083.50
2023-03-07T23:07:13.214Z,97087.84
2023-03-07T23:09:39.761Z,97090.44
2023-03-07T23:12:06.705Z,97087.81
2023-03-07T23:14:33.201Z,97087.81
2023-03-07T23:16:59.651Z,97086.06
2023-03-07T23:19:26.210Z,97088.63
2023-03-07T23:21:52.735Z,97101.63
2023-03-07T23:24:19.196Z,97098.19
2023-03-07T23:26:45.739Z,97097.38
2023-03-07T23:29:12.454Z,97092.22
2023-03-07T23:31:41.163Z,97100.00
2023-03-07T23:34:15.030Z,97089.59
2023-03-07T23:36:41.816Z,97093.06
2023-03-07T23:39:08.499Z,97094.81
2023-03-07T23:41:35.016Z,97099.16
2023-03-07T23:44:02.145Z,97105.19
2023-03-07T23:46:29.680Z,97100.84
2023-03-07T23:48:56.413Z,97104.34
2023-03-07T23:51:23.772Z,97110.47
2023-03-07T23:53:50.280Z,97109.66
2023-03-07T23:56:17.102Z,97105.34
2023-03-07T23:58:47.483Z,97101.94
